createdAt,value
2023-04-08T00:02:18.665Z,42.70
2023-04-08T00:04:48.929Z,40.55
2023-04-08T00:07:16.562Z,40.10
2023-04-08T00:09:44.199Z,41.75
2023-04-08T00:12:11.749Z,44.30
2023-04-08T00:14:41.677Z,53.53
2023-04-08T00:17:09.216Z,44.80
2023-04-08T00:19:36.901Z,48.75
2023-04-08T00:22:04.425Z,48.65
2023-04-08T00:24:32.713Z,45.05
2023-04-08T00:27:02.974Z,46.13
2023-04-08T00:29:31.040Z,47.90
2023-04-08T00:31:58.346Z,46.50
2023-04-08T00:34:26.498Z,54.90
2023-04-08T00:36:54.387Z,56.45
2023-04-08T00:39:22.022Z,56.95
2023-04-08T00:41:49.347Z,51.60
2023-04-08T00:44:17.684Z,46.40
2023-04-08T00:46:45.998Z,46.75
2023-04-08T00:49:13.728Z,47.70
2023-04-08T00:51:41.139Z,44.28
2023-04-08T00:54:08.873Z,46.67
2023-04-08T00:56:36.934Z,43.80
2023-04-08T00:59:05.466Z,47.28
2023-04-08T01:01:33.018Z,55.05
2023-04-08T01:04:15.311Z,37.03
2023-04-08T01:06:58.963Z,36.78
2023-04-08T01:09:32.666Z,30.33
2023-04-08T01:12:06.205Z,31.42
2023-04-08T01:14:39.151Z,29.95
2023-04-08T01:17:07.519Z,29.92
2023-04-08T01:19:40.233Z,35.95
2023-04-08T01:22:16.281Z,34.78
2023-04-08T01:24:45.850Z,35.10
2023-04-08T01:27:17.108Z,44.78
2023-04-08T01:29:45.872Z,39.92
2023-04-08T01:32:14.619Z,40.15
2023-04-08T01:34:43.314Z,42.58
2023-04-08T01:37:12.643Z,39.33
2023-04-08T01:39:42.543Z,37.72
2023-04-08T01:42:13.969Z,40.42
2023-04-08T01:44:43.128Z,44.75
2023-04-08T01:47:13.590Z,39.95
2023-04-08T01:49:43.326Z,40.92
2023-04-08T01:52:11.857Z,41.88
2023-04-08T01:54:39.581Z,43.13
2023-04-08T01:57:09.772Z,39.70
2023-04-08T01:59:40.500Z,40.97
2023-04-08T02:02:10.124Z,34.75
2023-04-08T02:04:39.239Z,39.28
2023-04-08T02:07:09.258Z,36.70
2023-04-08T02:09:36.934Z,38.67
2023-04-08T02:12:04.670Z,38.30
2023-04-08T02:14:35.744Z,38.00
2023-04-08T02:17:24.994Z,37.25
2023-04-08T02:20:08.009Z,39.05
2023-04-08T02:23:11.297Z,36.45
2023-04-08T02:25:43.436Z,37.20
2023-04-08T02:28:11.785Z,36.33
2023-04-08T02:30:44.355Z,35.38
2023-04-08T02:33:14.370Z,35.40
2023-04-08T02:35:42.588Z,33.55
2023-04-08T02:38:10.967Z,33.25
2023-04-08T02:40:38.884Z,31.60
2023-04-08T02:43:06.444Z,32.13
2023-04-08T02:45:41.053Z,31.70
2023-04-08T02:48:09.655Z,32.47
2023-04-08T02:50:37.790Z,31.85
2023-04-08T02:53:06.252Z,32.15
2023-04-08T02:55:35.019Z,31.13
2023-04-08T02:58:03.565Z,28.88
2023-04-08T03:00:31.657Z,29.67
2023-04-08T03:03:00.530Z,31.15
2023-04-08T03:05:30.584Z,30.88
2023-04-08T03:07:58.726Z,31.52
2023-04-08T03:10:26.569Z,30.77
2023-04-08T03:12:53.877Z,31.05
2023-04-08T03:15:22.185Z,32.53
2023-04-08T03:17:49.540Z,32.55
2023-04-08T03:20:17.333Z,33.30
2023-04-08T03:22:44.931Z,33.28
2023-04-08T03:25:12.603Z,32.85
2023-04-08T03:27:39.927Z,32.10
2023-04-08T03:30:08.254Z,31.58
2023-04-08T03:32:36.090Z,32.15
2023-04-08T03:35:04.630Z,31.80
2023-04-08T03:37:32.472Z,31.88
2023-04-08T03:40:00.220Z,32.85
2023-04-08T03:42:27.801Z,33.55
2023-04-08T03:44:55.660Z,32.25
2023-04-08T03:47:23.108Z,31.58
2023-04-08T03:49:53.748Z,34.00
2023-04-08T03:52:23.410Z,36.28
2023-04-08T03:54:51.151Z,34.35
2023-04-08T03:57:18.595Z,32.95
2023-04-08T03:59:46.317Z,32.42
2023-04-08T04:02:17.229Z,32.80
2023-04-08T04:04:45.564Z,31.48
2023-04-08T04:07:12.889Z,32.38
2023-04-08T04:09:46.368Z,33.38
2023-04-08T04:12:13.742Z,31.35
2023-04-08T04:14:45.800Z,31.35
2023-04-08T04:17:21.238Z,32.75
2023-04-08T04:19:50.087Z,33.85
2023-04-08T04:22:20.031Z,34.63
2023-04-08T04:24:49.798Z,33.63
2023-04-08T04:27:19.074Z,32.78
2023-04-08T04:29:46.713Z,31.80
2023-04-08T04:32:14.012Z,37.33
2023-04-08T04:34:43.181Z,34.40
2023-04-08T04:37:12.185Z,33.72
2023-04-08T04:39:41.222Z,34.38
2023-04-08T04:42:08.570Z,39.85
2023-04-08T04:44:36.493Z,35.50
2023-04-08T04:47:04.884Z,32.00
2023-04-08T04:49:32.516Z,31.88
2023-04-08T04:51:59.826Z,40.55
2023-04-08T04:54:27.490Z,41.95
2023-04-08T04:56:54.784Z,43.92
2023-04-08T04:59:23.459Z,44.67
2023-04-08T05:01:52.284Z,43.55
2023-04-08T05:04:24.717Z,41.75
2023-04-08T05:06:52.099Z,41.17
2023-04-08T05:09:19.759Z,38.17
2023-04-08T05:11:47.083Z,37.63
2023-04-08T05:14:14.622Z,38.47
2023-04-08T05:16:41.898Z,37.47
2023-04-08T05:19:09.730Z,36.58
2023-04-08T05:21:37.221Z,31.83
2023-04-08T05:24:05.186Z,36.08
2023-04-08T05:26:33.156Z,32.90
2023-04-08T05:29:00.799Z,33.50
2023-04-08T05:31:28.482Z,33.55
2023-04-08T05:33:56.376Z,34.00
2023-04-08T05:36:23.748Z,34.10
2023-04-08T05:38:52.698Z,36.40
2023-04-08T05:41:21.632Z,33.72
2023-04-08T05:43:49.435Z,35.65
2023-04-08T05:46:16.741Z,31.23
2023-04-08T05:48:44.337Z,35.65
2023-04-08T05:51:15.602Z,35.75
2023-04-08T05:53:43.222Z,33.30
2023-04-08T05:56:10.563Z,36.85
2023-04-08T05:58:38.189Z,31.80
2023-04-08T06:01:07.593Z,33.65
2023-04-08T06:03:37.084Z,34.85
2023-04-08T06:06:04.712Z,33.80
2023-04-08T06:08:32.314Z,36.25
2023-04-08T06:10:59.650Z,33.55
2023-04-08T06:13:27.348Z,33.50
2023-04-08T06:15:54.754Z,33.78
2023-04-08T06:18:22.520Z,33.95
2023-04-08T06:20:50.829Z,33.75
2023-04-08T06:23:18.923Z,31.77
2023-04-08T06:25:46.407Z,33.35
2023-04-08T06:28:14.442Z,33.30
2023-04-08T06:30:41.751Z,31.95
2023-04-08T06:33:09.653Z,31.52
2023-04-08T06:35:38.057Z,27.83
2023-04-08T06:38:05.855Z,27.95
2023-04-08T06:40:33.580Z,29.58
2023-04-08T06:43:01.508Z,33.53
2023-04-08T06:45:35.796Z,28.40
2023-04-08T06:48:03.676Z,37.55
2023-04-08T06:50:31.240Z,30.95
2023-04-08T06:52:58.889Z,27.25
2023-04-08T06:55:26.655Z,26.23
2023-04-08T06:57:54.224Z,23.50
2023-04-08T07:00:21.712Z,23.90
2023-04-08T07:02:50.966Z,24.10
2023-04-08T07:05:18.744Z,22.80
2023-04-08T07:07:46.529Z,24.88
2023-04-08T07:10:13.839Z,22.27
2023-04-08T07:12:42.299Z,22.80
2023-04-08T07:15:10.163Z,23.67
2023-04-08T07:17:37.992Z,20.95
2023-04-08T07:20:08.242Z,19.30
2023-04-08T07:22:36.232Z,21.10
2023-04-08T07:25:03.725Z,25.08
2023-04-08T07:27:31.574Z,20.83
2023-04-08T07:29:58.858Z,19.27
2023-04-08T07:32:28.321Z,17.50
2023-04-08T07:34:56.832Z,21.45
2023-04-08T07:37:24.556Z,23.63
2023-04-08T07:39:53.657Z,18.05
2023-04-08T07:42:24.150Z,21.77
2023-04-08T07:44:53.097Z,23.20
2023-04-08T07:47:20.802Z,19.95
2023-04-08T07:49:48.580Z,24.17
2023-04-08T07:52:16.436Z,23.02
2023-04-08T07:54:43.803Z,21.23
2023-04-08T07:57:11.434Z,26.23
2023-04-08T07:59:38.895Z,24.10
2023-04-08T08:02:07.108Z,27.02
2023-04-08T08:04:34.914Z,27.48
2023-04-08T08:07:03.079Z,26.63
2023-04-08T08:09:32.126Z,25.95
2023-04-08T08:11:59.775Z,28.90
2023-04-08T08:14:27.230Z,24.08
2023-04-08T08:16:54.973Z,24.27
2023-04-08T08:19:23.503Z,23.58
2023-04-08T08:21:52.390Z,23.88
2023-04-08T08:24:19.735Z,24.60
2023-04-08T08:26:49.370Z,23.55
2023-04-08T08:29:17.311Z,25.27
2023-04-08T08:31:45.064Z,43.40
2023-04-08T08:34:13.647Z,50.50
2023-04-08T08:36:43.794Z,69.30
2023-04-08T08:39:11.203Z,26.63
2023-04-08T08:41:39.438Z,25.13
2023-04-08T08:44:09.120Z,24.40
2023-04-08T08:46:45.218Z,27.40
2023-04-08T08:49:13.069Z,26.45
2023-04-08T08:51:42.812Z,29.02
2023-04-08T08:54:10.246Z,27.35
2023-04-08T08:56:38.008Z,28.73
2023-04-08T08:59:06.437Z,25.75
2023-04-08T09:01:37.934Z,25.60
2023-04-08T09:04:18.567Z,24.58
2023-04-08T09:06:49.024Z,21.10
2023-04-08T09:09:18.008Z,22.92
2023-04-08T09:11:48.126Z,23.02
2023-04-08T09:14:26.394Z,21.90
2023-04-08T09:16:54.202Z,22.48
2023-04-08T09:19:21.589Z,23.80
2023-04-08T09:22:11.334Z,23.67
2023-04-08T09:24:39.034Z,28.45
2023-04-08T09:27:06.858Z,28.55
2023-04-08T09:29:37.467Z,24.08
2023-04-08T09:32:07.573Z,22.98
2023-04-08T09:34:35.123Z,23.23
2023-04-08T09:37:02.965Z,24.85
2023-04-08T09:39:32.771Z,23.55
2023-04-08T09:42:06.966Z,25.30
2023-04-08T09:44:38.230Z,22.98
2023-04-08T09:47:14.782Z,23.67
2023-04-08T09:49:50.244Z,22.48
2023-04-08T09:52:28.282Z,25.05
2023-04-08T09:55:08.873Z,23.67
2023-04-08T09:58:11.811Z,23.27
2023-04-08T10:00:50.659Z,18.48
2023-04-08T10:03:37.819Z,20.25
2023-04-08T10:06:08.370Z,23.25
2023-04-08T10:08:36.583Z,35.67
2023-04-08T10:11:04.036Z,26.83
2023-04-08T10:13:32.358Z,65.70
2023-04-08T10:16:19.322Z,40.13
2023-04-08T10:18:47.066Z,25.52
2023-04-08T10:21:32.990Z,24.38
2023-04-08T10:24:06.340Z,24.00
2023-04-08T10:26:38.887Z,22.80
2023-04-08T10:29:32.947Z,25.10
2023-04-08T10:32:01.558Z,24.88
2023-04-08T10:34:31.118Z,24.77
2023-04-08T10:37:02.371Z,24.52
2023-04-08T10:39:31.733Z,26.15
2023-04-08T10:42:02.784Z,26.23
2023-04-08T10:44:30.865Z,26.77
2023-04-08T10:46:58.306Z,26.10
2023-04-08T10:49:33.770Z,24.80
2023-04-08T10:52:01.592Z,28.05
2023-04-08T10:54:29.236Z,24.92
2023-04-08T10:56:56.832Z,26.80
2023-04-08T10:59:30.058Z,28.08
2023-04-08T11:01:58.587Z,26.92
2023-04-08T11:04:27.699Z,27.55
2023-04-08T11:06:55.152Z,27.67
2023-04-08T11:09:22.846Z,27.90
2023-04-08T11:11:52.476Z,27.88
2023-04-08T11:14:22.133Z,31.70
2023-04-08T11:16:49.971Z,27.83
2023-04-08T11:19:20.149Z,28.30
2023-04-08T11:21:49.567Z,27.20
2023-04-08T11:24:18.126Z,30.05
2023-04-08T11:26:45.598Z,28.92
2023-04-08T11:29:17.082Z,29.13
2023-04-08T11:31:44.851Z,37.47
2023-04-08T11:34:12.481Z,31.77
2023-04-08T11:36:42.990Z,30.48
2023-04-08T11:39:12.422Z,28.00
2023-04-08T11:41:43.013Z,27.98
2023-04-08T11:44:10.936Z,28.00
2023-04-08T11:46:38.504Z,28.50
2023-04-08T11:49:08.239Z,60.03
2023-04-08T11:51:55.191Z,27.63
2023-04-08T11:54:32.372Z,29.13
2023-04-08T11:57:00.213Z,30.13
2023-04-08T11:59:29.667Z,29.02
2023-04-08T12:01:57.583Z,28.55
2023-04-08T12:04:25.647Z,26.27
2023-04-08T12:06:53.531Z,25.40
2023-04-08T12:09:21.376Z,26.38
2023-04-08T12:11:48.897Z,25.90
2023-04-08T12:14:16.628Z,29.38
2023-04-08T12:16:44.012Z,26.02
2023-04-08T12:19:11.628Z,29.75
2023-04-08T12:21:39.586Z,28.10
2023-04-08T12:24:07.428Z,29.45
2023-04-08T12:26:34.737Z,37.58
2023-04-08T12:29:02.529Z,34.30
2023-04-08T12:31:29.954Z,36.63
2023-04-08T12:33:57.595Z,33.30
2023-04-08T12:36:25.057Z,32.75
2023-04-08T12:38:52.929Z,32.50
2023-04-08T12:41:21.265Z,30.35
2023-04-08T12:44:08.016Z,28.42
2023-04-08T12:46:35.474Z,28.83
2023-04-08T12:49:05.117Z,26.27
2023-04-08T12:51:33.343Z,27.55
2023-04-08T12:54:01.494Z,28.23
2023-04-08T12:56:28.907Z,31.02
2023-04-08T12:58:57.857Z,29.55
2023-04-08T13:01:45.418Z,27.52
2023-04-08T13:04:13.939Z,27.83
2023-04-08T13:06:42.954Z,29.70
2023-04-08T13:09:11.361Z,45.10
2023-04-08T13:11:38.828Z,30.27
2023-04-08T13:14:08.980Z,27.48
2023-04-08T13:16:37.780Z,28.35
2023-04-08T13:19:06.242Z,27.40
2023-04-08T13:21:33.647Z,23.30
2023-04-08T13:24:02.664Z,28.95
2023-04-08T13:26:30.139Z,23.77
2023-04-08T13:28:58.615Z,25.27
2023-04-08T13:31:26.716Z,27.17
2023-04-08T13:33:57.585Z,25.70
2023-04-08T13:36:26.168Z,24.75
2023-04-08T13:38:53.903Z,25.13
2023-04-08T13:41:21.421Z,23.40
2023-04-08T13:43:50.650Z,25.40
2023-04-08T13:46:18.414Z,23.70
2023-04-08T13:48:46.634Z,28.35
2023-04-08T13:51:14.113Z,23.33
2023-04-08T13:53:41.855Z,25.52
2023-04-08T13:56:09.174Z,26.20
2023-04-08T13:58:37.234Z,27.90
2023-04-08T14:01:04.577Z,28.95
2023-04-08T14:03:32.589Z,25.92
2023-04-08T14:06:01.676Z,25.40
2023-04-08T14:08:29.699Z,28.45
2023-04-08T14:10:59.410Z,26.50
2023-04-08T14:13:28.068Z,29.15
2023-04-08T14:15:58.758Z,27.58
2023-04-08T14:18:29.381Z,27.83
2023-04-08T14:20:59.863Z,30.65
2023-04-08T14:23:27.515Z,33.60
2023-04-08T14:25:55.174Z,32.50
2023-04-08T14:28:22.941Z,40.17
2023-04-08T14:30:50.350Z,34.80
2023-04-08T14:33:18.011Z,38.85
2023-04-08T14:35:45.324Z,34.60
2023-04-08T14:38:12.949Z,34.70
2023-04-08T14:40:40.786Z,32.33
2023-04-08T14:43:08.534Z,31.98
2023-04-08T14:45:35.902Z,32.40
2023-04-08T14:48:04.100Z,29.17
2023-04-08T14:50:31.931Z,30.52
2023-04-08T14:53:01.301Z,30.00
2023-04-08T14:55:30.235Z,35.33
2023-04-08T14:57:59.844Z,31.73
2023-04-08T15:00:28.703Z,30.92
2023-04-08T15:02:56.744Z,31.45
2023-04-08T15:05:24.171Z,37.20
2023-04-08T15:07:51.950Z,35.83
2023-04-08T15:10:19.258Z,35.88
2023-04-08T15:12:47.688Z,31.85
2023-04-08T15:15:15.059Z,33.97
2023-04-08T15:17:42.779Z,30.42
2023-04-08T15:20:11.185Z,31.40
2023-04-08T15:22:40.764Z,34.17
2023-04-08T15:25:09.350Z,33.00
2023-04-08T15:27:37.733Z,29.42
2023-04-08T15:30:10.675Z,28.70
2023-04-08T15:32:39.668Z,34.17
2023-04-08T15:35:08.019Z,34.25
2023-04-08T15:37:36.595Z,39.10
2023-04-08T15:40:07.630Z,28.67
2023-04-08T15:42:37.320Z,26.58
2023-04-08T15:45:04.990Z,28.25
2023-04-08T15:47:35.398Z,29.77
2023-04-08T15:50:03.122Z,30.40
2023-04-08T15:52:32.910Z,30.10
2023-04-08T15:55:04.089Z,30.65
2023-04-08T15:57:34.094Z,33.85
2023-04-08T16:00:01.394Z,31.55
2023-04-08T16:02:29.889Z,33.45
2023-04-08T16:04:57.497Z,32.35
2023-04-08T16:07:29.435Z,31.63
2023-04-08T16:10:08.282Z,29.15
2023-04-08T16:12:39.134Z,30.63
2023-04-08T16:15:09.928Z,30.02
2023-04-08T16:17:50.100Z,30.45
2023-04-08T16:20:19.819Z,29.02
2023-04-08T16:22:50.462Z,30.55
2023-04-08T16:25:19.528Z,29.88
2023-04-08T16:28:01.527Z,31.35
2023-04-08T16:30:31.517Z,33.47
2023-04-08T16:32:59.962Z,34.20
2023-04-08T16:35:27.406Z,30.77
2023-04-08T16:37:55.629Z,31.25
2023-04-08T16:40:23.173Z,32.80
2023-04-08T16:42:51.189Z,32.47
2023-04-08T16:45:21.766Z,47.45
2023-04-08T16:47:58.213Z,33.88
2023-04-08T16:50:28.743Z,31.67
2023-04-08T16:52:57.707Z,31.30
2023-04-08T16:55:25.806Z,32.28
2023-04-08T16:57:54.824Z,28.08
2023-04-08T17:00:22.942Z,33.38
2023-04-08T17:02:50.978Z,31.10
2023-04-08T17:05:18.493Z,32.60
2023-04-08T17:07:48.248Z,29.88
2023-04-08T17:10:17.344Z,26.70
2023-04-08T17:12:46.640Z,35.65
2023-04-08T17:15:15.842Z,26.40
2023-04-08T17:17:44.964Z,29.70
2023-04-08T17:20:12.932Z,34.55
2023-04-08T17:22:40.786Z,34.22
2023-04-08T17:25:08.533Z,26.45
2023-04-08T17:27:36.660Z,27.10
2023-04-08T17:30:04.519Z,27.90
2023-04-08T17:32:32.378Z,28.65
2023-04-08T17:34:59.672Z,29.05
2023-04-08T17:37:52.029Z,31.70
2023-04-08T17:40:19.670Z,32.25
2023-04-08T17:42:47.609Z,31.33
2023-04-08T17:45:15.113Z,70.15
2023-04-08T17:47:44.214Z,45.83
2023-04-08T17:50:12.019Z,39.58
2023-04-08T17:52:44.355Z,41.03
2023-04-08T17:55:12.996Z,67.30
2023-04-08T17:57:41.178Z,40.03
2023-04-08T18:03:12.573Z,57.92
2023-04-08T18:05:40.514Z,37.10
2023-04-08T18:08:13.060Z,57.08
2023-04-08T18:11:11.914Z,50.83
2023-04-08T18:13:39.729Z,44.65
2023-04-08T18:16:07.454Z,46.08
2023-04-08T18:18:37.058Z,46.22
2023-04-08T18:21:05.717Z,38.58
2023-04-08T18:23:35.123Z,44.97
2023-04-08T18:26:02.608Z,42.22
2023-04-08T18:28:32.234Z,35.70
2023-04-08T18:31:00.029Z,38.05
2023-04-08T18:33:28.452Z,65.63
2023-04-08T18:35:57.710Z,64.72
2023-04-08T18:38:29.309Z,51.42
2023-04-08T18:40:56.879Z,50.55
2023-04-08T18:43:25.442Z,49.75
2023-04-08T18:45:52.901Z,54.25
2023-04-08T18:48:21.363Z,41.53
2023-04-08T18:50:49.673Z,68.40
2023-04-08T18:53:18.450Z,52.30
2023-04-08T18:55:51.836Z,54.08
2023-04-08T18:58:21.441Z,43.50
2023-04-08T19:00:49.394Z,53.13
2023-04-08T19:03:17.374Z,45.60
2023-04-08T19:05:49.089Z,43.03
2023-04-08T19:08:18.144Z,50.20
2023-04-08T19:10:45.627Z,66.43
2023-04-08T19:13:14.333Z,51.50
2023-04-08T19:15:43.290Z,55.00
2023-04-08T19:18:12.140Z,56.47
2023-04-08T19:20:40.155Z,64.68
2023-04-08T19:23:08.141Z,49.13
2023-04-08T19:25:37.492Z,44.15
2023-04-08T19:28:09.170Z,47.50
2023-04-08T19:30:38.149Z,45.80
2023-04-08T19:33:07.979Z,47.80
2023-04-08T19:35:35.611Z,47.72
2023-04-08T19:38:06.375Z,45.08
2023-04-08T19:40:35.267Z,45.15
2023-04-08T19:43:04.431Z,59.00
2023-04-08T19:45:34.293Z,71.85
2023-04-08T19:48:02.579Z,102.05
2023-04-08T19:50:31.499Z,72.43
2023-04-08T19:53:02.765Z,60.90
2023-04-08T19:55:37.618Z,58.05
2023-04-08T19:58:18.350Z,43.58
2023-04-08T20:00:46.515Z,45.40
2023-04-08T20:03:15.745Z,38.85
2023-04-08T20:05:46.099Z,47.47
2023-04-08T20:08:14.234Z,38.53
2023-04-08T20:10:41.722Z,36.25
2023-04-08T20:13:16.125Z,40.40
2023-04-08T20:15:45.194Z,35.30
2023-04-08T20:18:15.549Z,38.55
2023-04-08T20:20:44.380Z,35.42
2023-04-08T20:23:13.872Z,37.70
2023-04-08T20:25:42.660Z,36.17
2023-04-08T20:28:11.790Z,34.35
2023-04-08T20:30:41.003Z,32.20
2023-04-08T20:33:08.597Z,32.20
2023-04-08T20:35:37.952Z,36.47
2023-04-08T20:38:06.119Z,39.17
2023-04-08T20:40:36.020Z,40.47
2023-04-08T20:43:05.337Z,40.33
2023-04-08T20:45:34.618Z,38.42
2023-04-08T20:48:02.431Z,37.72
2023-04-08T20:50:32.230Z,34.92
2023-04-08T20:53:00.836Z,33.55
2023-04-08T20:55:28.157Z,38.22
2023-04-08T20:57:55.930Z,35.85
2023-04-08T21:00:26.004Z,33.85
2023-04-08T21:02:53.922Z,36.97
2023-04-08T21:05:22.138Z,36.67
2023-04-08T21:07:49.983Z,35.05
2023-04-08T21:10:18.019Z,34.22
2023-04-08T21:12:48.730Z,31.70
2023-04-08T21:15:16.302Z,33.25
2023-04-08T21:17:44.028Z,33.70
2023-04-08T21:20:12.789Z,32.35
2023-04-08T21:22:41.768Z,57.55
2023-04-08T21:25:09.343Z,42.60
2023-04-08T21:27:38.235Z,38.30
2023-04-08T21:30:06.284Z,34.08
2023-04-08T21:32:36.620Z,33.80
2023-04-08T21:35:04.998Z,33.80
2023-04-08T21:37:32.734Z,34.72
2023-04-08T21:40:01.598Z,34.97
2023-04-08T21:42:34.156Z,33.67
2023-04-08T21:45:04.023Z,30.58
2023-04-08T21:47:32.209Z,32.55
2023-04-08T21:50:01.423Z,32.22
2023-04-08T21:52:30.012Z,32.22
2023-04-08T21:54:57.533Z,32.10
2023-04-08T21:57:25.342Z,30.42
2023-04-08T21:59:52.718Z,33.45
2023-04-08T22:02:21.925Z,32.78
2023-04-08T22:04:49.733Z,34.72
2023-04-08T22:07:17.344Z,32.30
2023-04-08T22:09:44.900Z,34.42
2023-04-08T22:12:12.585Z,33.72
2023-04-08T22:14:39.924Z,31.70
2023-04-08T22:17:07.570Z,33.42
2023-04-08T22:19:36.426Z,34.00
2023-04-08T22:22:08.998Z,34.67
2023-04-08T22:24:37.220Z,34.55
2023-04-08T22:27:04.951Z,36.45
2023-04-08T22:29:32.310Z,36.08
2023-04-08T22:32:00.045Z,35.90
2023-04-08T22:34:27.494Z,38.85
2023-04-08T22:36:55.162Z,39.13
2023-04-08T22:39:26.170Z,42.03
2023-04-08T22:41:54.162Z,46.05
2023-04-08T22:44:21.682Z,42.78
2023-04-08T22:46:49.284Z,61.70
2023-04-08T22:49:16.593Z,53.35
2023-04-08T22:51:44.247Z,47.45
2023-04-08T22:54:11.617Z,46.67
2023-04-08T22:56:39.183Z,41.92
2023-04-08T22:59:06.661Z,40.28
2023-04-08T23:01:34.542Z,38.33
2023-04-08T23:04:03.012Z,42.60
2023-04-08T23:06:31.456Z,44.30
2023-04-08T23:08:58.809Z,44.55
2023-04-08T23:11:27.423Z,43.70
2023-04-08T23:13:54.768Z,39.63
2023-04-08T23:16:26.022Z,41.67
2023-04-08T23:18:53.589Z,43.97
2023-04-08T23:21:21.714Z,45.20
2023-04-08T23:23:49.260Z,41.67
2023-04-08T23:26:19.161Z,39.90
2023-04-08T23:28:47.579Z,42.30
2023-04-08T23:31:15.550Z,45.33
2023-04-08T23:33:42.893Z,42.72
2023-04-08T23:36:11.899Z,58.65
2023-04-08T23:38:39.365Z,48.22
2023-04-08T23:41:08.409Z,40.50
2023-04-08T23:43:36.928Z,39.30
2023-04-08T23:46:04.630Z,40.22
2023-04-08T23:48:31.949Z,39.22
2023-04-08T23:50:59.646Z,37.17
2023-04-08T23:53:27.123Z,38.22
2023-04-08T23:56:07.710Z,38.25
2023-04-08T23:58:35.503Z,38.58
